Time;durP1;ratioP1;P1;durP2;ratioP2;P2;SDS_P1;SDS_P2;PMS_P1;PMS_P2;Temp;Humidity;BMP_temperature;BMP_pressure;BME280_temperature;BME280_humidity;BME280_pressure;Samples;Min_cycle;Max_cycle;Signal;HPM_P1;HPM_P2
2022/06/25 00:01:34;;;;;;;1.77;1.65;;;;;;;;;;5030514;28;20740;-84
2022/06/25 00:04:01;;;;;;;1.92;1.70;;;;;;;;;;5031255;28;20691;-85
2022/06/25 00:06:29;;;;;;;2.40;2.20;;;;;;;;;;5029273;28;20203;-84
2022/06/25 00:08:56;;;;;;;1.98;1.80;;;;;;;;;;5031287;28;20195;-85
2022/06/25 00:14:11;;;;;;;1.73;1.58;;;;;;;;;;5031403;28;20187;-84
2022/06/25 00:16:40;;;;;;;2.05;1.85;;;;;;;;;;5028130;28;20205;-86
2022/06/25 00:19:07;;;;;;;1.97;1.70;;;;;;;;;;5030507;28;20215;-83
2022/06/25 00:21:35;;;;;;;2.10;2.00;;;;;;;;;;5028078;28;21146;-83
2022/06/25 00:24:02;;;;;;;2.20;2.00;;;;;;;;;;5028584;28;20657;-83
2022/06/25 00:26:29;;;;;;;1.80;1.70;;;;;;;;;;5030627;28;20207;-83
2022/06/25 00:28:59;;;;;;;4.03;1.90;;;;;;;;;;5032626;28;20292;-84
2022/06/25 00:31:26;;;;;;;1.80;1.67;;;;;;;;;;5026622;28;20490;-85
2022/06/25 00:33:54;;;;;;;3.45;2.15;;;;;;;;;;5032128;28;20959;-84
2022/06/25 00:36:21;;;;;;;2.60;1.73;;;;;;;;;;5030923;28;20199;-85
2022/06/25 00:38:48;;;;;;;2.55;2.35;;;;;;;;;;5031854;28;20207;-84
2022/06/25 00:41:15;;;;;;;1.40;1.30;;;;;;;;;;5026701;28;20202;-84
2022/06/25 00:43:42;;;;;;;2.47;1.80;;;;;;;;;;5030162;28;20462;-84
2022/06/25 00:46:09;;;;;;;2.03;1.63;;;;;;;;;;5027128;28;20201;-84
2022/06/25 00:48:37;;;;;;;1.73;1.63;;;;;;;;;;5029198;28;20453;-84
2022/06/25 00:51:10;;;;;;;1.93;1.80;;;;;;;;;;5029468;28;20489;-84
2022/06/25 00:53:37;;;;;;;1.80;1.70;;;;;;;;;;5026420;28;20457;-84
2022/06/25 00:56:06;;;;;;;1.80;1.70;;;;;;;;;;5032578;28;20202;-85
2022/06/25 00:58:34;;;;;;;4.05;1.25;;;;;;;;;;5033100;28;20241;-83
2022/06/25 01:01:03;;;;;;;2.33;2.13;;;;;;;;;;5028568;28;20673;-84
2022/06/25 01:03:30;;;;;;;2.22;2.03;;;;;;;;;;5028734;28;20204;-83
2022/06/25 01:05:57;;;;;;;1.65;1.55;;;;;;;;;;5030165;28;20203;-83
2022/06/25 01:08:26;;;;;;;2.20;1.75;;;;;;;;;;5020938;28;20207;-86
2022/06/25 01:10:53;;;;;;;2.50;2.28;;;;;;;;;;5030722;28;20218;-84
2022/06/25 01:13:21;;;;;;;2.15;1.42;;;;;;;;;;5031774;28;20199;-86
2022/06/25 01:15:48;;;;;;;2.78;1.65;;;;;;;;;;5032033;28;20260;-86
2022/06/25 01:18:15;;;;;;;1.57;1.47;;;;;;;;;;5032551;28;20202;-85
2022/06/25 01:20:43;;;;;;;2.00;1.80;;;;;;;;;;5031988;28;20951;-86
2022/06/25 01:23:13;;;;;;;1.67;1.58;;;;;;;;;;5027436;28;20223;-85
2022/06/25 01:25:41;;;;;;;1.92;1.60;;;;;;;;;;5029706;28;20202;-86
2022/06/25 01:28:09;;;;;;;1.80;1.70;;;;;;;;;;5023870;28;20200;-85
2022/06/25 01:30:37;;;;;;;2.00;1.77;;;;;;;;;;5025546;28;20215;-84
2022/06/25 01:33:04;;;;;;;2.13;1.38;;;;;;;;;;5027610;28;20214;-86
2022/06/25 01:35:31;;;;;;;1.75;1.65;;;;;;;;;;5032187;28;20205;-83
2022/06/25 01:37:58;;;;;;;1.80;1.50;;;;;;;;;;5026361;28;20211;-83
2022/06/25 01:40:26;;;;;;;1.70;1.40;;;;;;;;;;5031524;28;20198;-84
2022/06/25 01:42:59;;;;;;;1.40;1.30;;;;;;;;;;5031775;28;20203;-85
2022/06/25 01:45:27;;;;;;;1.70;1.35;;;;;;;;;;5042121;28;20205;-84
2022/06/25 01:47:54;;;;;;;2.28;1.45;;;;;;;;;;5035925;28;20278;-84
2022/06/25 01:50:21;;;;;;;1.30;1.17;;;;;;;;;;5031307;28;20219;-84
2022/06/25 01:52:48;;;;;;;1.70;1.60;;;;;;;;;;5023399;28;20315;-84
2022/06/25 01:55:18;;;;;;;1.50;1.40;;;;;;;;;;5032296;28;20205;-84
2022/06/25 01:57:47;;;;;;;3.45;1.40;;;;;;;;;;5032025;28;20195;-84
2022/06/25 02:00:15;;;;;;;2.00;1.60;;;;;;;;;;5023366;28;20197;-84
2022/06/25 02:02:43;;;;;;;1.75;1.60;;;;;;;;;;5029155;28;20233;-84
2022/06/25 02:05:11;;;;;;;2.35;1.92;;;;;;;;;;5029597;28;20544;-84
2022/06/25 02:07:38;;;;;;;1.60;1.50;;;;;;;;;;5025103;28;20248;-86
2022/06/25 02:10:05;;;;;;;1.83;1.58;;;;;;;;;;5022109;28;20226;-85
2022/06/25 02:12:34;;;;;;;1.40;1.30;;;;;;;;;;5021833;28;20213;-85
2022/06/25 02:15:02;;;;;;;1.90;1.45;;;;;;;;;;5032126;28;20202;-85
2022/06/25 02:17:29;;;;;;;1.48;1.35;;;;;;;;;;5023290;28;20253;-86
2022/06/25 02:19:56;;;;;;;2.30;1.73;;;;;;;;;;5027073;28;20207;-85
2022/06/25 02:22:23;;;;;;;1.73;1.30;;;;;;;;;;5022459;28;20235;-85
2022/06/25 02:24:52;;;;;;;1.45;1.35;;;;;;;;;;5031796;28;20203;-85
2022/06/25 02:27:19;;;;;;;1.45;1.35;;;;;;;;;;5032133;28;20724;-85
2022/06/25 02:29:46;;;;;;;1.50;1.40;;;;;;;;;;5031165;28;20243;-82
2022/06/25 02:32:14;;;;;;;1.38;1.27;;;;;;;;;;5023384;28;20275;-83
2022/06/25 02:34:44;;;;;;;3.30;1.50;;;;;;;;;;5030741;28;20236;-83
2022/06/25 02:37:12;;;;;;;2.33;1.30;;;;;;;;;;5032082;28;20234;-83
2022/06/25 02:39:39;;;;;;;1.58;1.40;;;;;;;;;;5034543;28;20680;-83
2022/06/25 02:42:06;;;;;;;1.33;1.23;;;;;;;;;;5033164;28;20205;-85
2022/06/25 02:44:33;;;;;;;6.13;1.45;;;;;;;;;;5033034;28;20201;-85
2022/06/25 02:47:00;;;;;;;1.50;1.40;;;;;;;;;;5029917;28;20260;-87
2022/06/25 02:49:29;;;;;;;2.15;1.60;;;;;;;;;;5028954;28;20199;-85
2022/06/25 02:51:56;;;;;;;1.90;1.73;;;;;;;;;;5030121;28;20230;-85
2022/06/25 02:54:23;;;;;;;1.77;1.67;;;;;;;;;;5034319;28;20233;-84
2022/06/25 02:59:35;;;;;;;2.25;1.65;;;;;;;;;;5028675;28;20427;-84
2022/06/25 03:02:02;;;;;;;1.20;1.10;;;;;;;;;;5028443;28;20232;-84
2022/06/25 03:04:30;;;;;;;1.80;1.70;;;;;;;;;;5030302;28;20213;-85
2022/06/25 03:06:58;;;;;;;1.88;1.77;;;;;;;;;;5029182;28;20215;-84
2022/06/25 03:09:25;;;;;;;1.83;1.73;;;;;;;;;;5033153;28;20651;-85
2022/06/25 03:11:52;;;;;;;1.60;1.50;;;;;;;;;;5032076;28;20222;-84
2022/06/25 03:14:19;;;;;;;1.75;1.65;;;;;;;;;;5031168;28;20219;-84
2022/06/25 03:16:46;;;;;;;1.60;1.40;;;23.70;77.40;;;;;;5031103;28;20212;-84
2022/06/25 03:19:13;;;;;;;2.03;1.20;;;;;;;;;;5031708;28;20195;-85
2022/06/25 03:21:42;;;;;;;1.50;1.40;;;;;;;;;;5028335;28;20211;-84
2022/06/25 03:24:09;;;;;;;2.08;1.45;;;;;;;;;;5031834;28;20696;-84
2022/06/25 03:26:36;;;;;;;1.50;1.40;;;;;;;;;;5032473;28;20190;-85
2022/06/25 03:29:03;;;;;;;1.95;1.60;;;;;;;;;;5029588;28;20242;-87
2022/06/25 03:31:30;;;;;;;1.38;1.27;;;;;;;;;;5032751;28;20220;-86
2022/06/25 03:33:57;;;;;;;1.45;1.33;;;;;;;;;;5034464;28;20212;-86
2022/06/25 03:36:24;;;;;;;1.98;1.30;;;;;;;;;;5032252;28;20687;-83
2022/06/25 03:38:53;;;;;;;1.40;1.30;;;;;;;;;;5025250;28;20197;-85
2022/06/25 03:41:36;;;;;;;1.30;1.10;;;;;;;;;;5035130;28;20487;-85
2022/06/25 03:44:04;;;;;;;1.63;1.52;;;;;;;;;;5027937;28;20223;-85
2022/06/25 03:46:31;;;;;;;3.47;2.00;;;;;;;;;;5031039;28;20576;-84
2022/06/25 03:48:58;;;;;;;1.27;1.15;;;;;;;;;;5029347;28;20199;-84
2022/06/25 03:51:25;;;;;;;1.48;1.38;;;;;;;;;;5026609;28;20564;-83
2022/06/25 03:53:54;;;;;;;1.30;1.05;;;;;;;;;;5032288;28;20207;-83
2022/06/25 03:56:21;;;;;;;2.13;1.30;;;;;;;;;;5032393;28;20201;-84
2022/06/25 03:58:48;;;;;;;1.30;1.20;;;;;;;;;;5030569;28;20208;-84
2022/06/25 04:01:15;;;;;;;1.38;1.27;;;;;;;;;;5029028;28;20679;-84
2022/06/25 04:03:43;;;;;;;1.50;1.20;;;;;;;;;;5030073;28;20664;-84
2022/06/25 04:06:10;;;;;;;1.60;1.20;;;;;;;;;;5032417;28;20200;-83
2022/06/25 04:08:38;;;;;;;1.42;1.15;;;;;;;;;;5027681;28;20199;-83
2022/06/25 04:11:06;;;;;;;1.90;1.20;;;;;;;;;;5030947;28;20223;-84
2022/06/25 04:13:33;;;;;;;1.40;1.27;;;;;;;;;;5031547;28;20273;-86
2022/06/25 04:16:00;;;;;;;2.08;1.60;;;;;;;;;;5031702;28;20201;-86
2022/06/25 04:18:27;;;;;;;1.23;1.10;;;;;;;;;;5027021;28;20209;-86
2022/06/25 04:20:54;;;;;;;1.45;1.30;;;;;;;;;;5032381;28;20201;-84
2022/06/25 04:23:21;;;;;;;1.55;1.45;;;;;;;;;;5029033;28;20204;-85
2022/06/25 04:25:48;;;;;;;1.85;1.40;;;;;;;;;;5033877;28;20197;-88
2022/06/25 04:31:01;;;;;;;1.45;1.35;;;;;;;;;;5029903;28;20286;-89
2022/06/25 04:33:29;;;;;;;1.63;1.38;;;;;;;;;;5032198;28;20209;-89
2022/06/25 04:35:56;;;;;;;3.38;1.10;;;;;;;;;;5034779;28;20196;-89
2022/06/25 04:38:23;;;;;;;4.35;1.40;;;;;;;;;;5024817;28;20212;-88
2022/06/25 04:40:50;;;;;;;2.28;1.35;;;;;;;;;;5032036;28;20264;-88
2022/06/25 04:43:18;;;;;;;1.60;1.33;;;;;;;;;;5028852;28;20238;-88
2022/06/25 04:45:45;;;;;;;1.40;1.30;;;;;;;;;;5028085;28;20289;-87
2022/06/25 04:48:12;;;;;;;2.03;1.20;;;;;;;;;;5025547;28;20614;-88
2022/06/25 04:50:39;;;;;;;1.30;1.13;;;;;;;;;;5031721;28;20204;-88
2022/06/25 04:53:06;;;;;;;1.70;1.50;;;;;;;;;;5028565;28;20655;-87
2022/06/25 04:55:34;;;;;;;1.25;1.15;;;;;;;;;;5031695;28;20196;-87
2022/06/25 04:58:01;;;;;;;1.40;1.30;;;;;;;;;;5030491;28;20558;-89
2022/06/25 05:00:29;;;;;;;2.85;1.35;;;;;;;;;;5027531;28;20200;-88
2022/06/25 05:02:56;;;;;;;1.45;1.35;;;;;;;;;;5027642;28;20220;-86
2022/06/25 05:05:23;;;;;;;1.48;1.13;;;;;;;;;;5029983;28;20441;-88
2022/06/25 05:07:50;;;;;;;1.70;1.38;;;;;;;;;;5030655;28;20615;-88
2022/06/25 05:10:17;;;;;;;1.30;1.15;;;;;;;;;;5029168;28;20602;-86
2022/06/25 05:15:31;;;;;;;1.67;1.30;;;;;;;;;;5029172;28;20194;-88
2022/06/25 05:17:58;;;;;;;2.60;1.33;;;;;;;;;;5025182;28;20677;-86
2022/06/25 05:20:25;;;;;;;1.90;1.20;;;;;;;;;;5029748;28;20659;-86
2022/06/25 05:22:52;;;;;;;1.83;1.40;;;;;;;;;;5031905;28;20201;-87
2022/06/25 05:25:19;;;;;;;2.47;1.25;;;;;;;;;;5031106;28;20571;-86
2022/06/25 05:27:46;;;;;;;3.25;1.40;;;;;;;;;;5029238;28;21572;-85
2022/06/25 05:30:13;;;;;;;1.80;1.30;;;;;;;;;;5027785;28;20200;-84
2022/06/25 05:32:42;;;;;;;1.60;1.33;;;;;;;;;;5029134;28;20225;-86
2022/06/25 05:35:09;;;;;;;1.70;1.23;;;;;;;;;;5030636;28;20565;-86
2022/06/25 05:37:36;;;;;;;1.40;1.30;;;;;;;;;;5029148;28;20653;-85
2022/06/25 05:40:03;;;;;;;1.30;1.20;;;;;;;;;;5027608;28;20637;-85
2022/06/25 05:42:30;;;;;;;2.10;1.50;;;;;;;;;;5029371;28;20198;-86
2022/06/25 05:44:57;;;;;;;1.63;1.10;;;;;;;;;;5027527;28;20608;-85
2022/06/25 05:47:25;;;;;;;1.60;1.08;;;;;;;;;;5030230;28;20207;-86
2022/06/25 05:49:53;;;;;;;1.10;0.93;;;;;;;;;;5027375;28;20212;-85
2022/06/25 05:52:20;;;;;;;2.00;1.20;;;;;;;;;;5025361;28;20493;-85
2022/06/25 05:54:47;;;;;;;1.53;1.20;;;;;;;;;;5031426;28;20454;-84
2022/06/25 05:57:14;;;;;;;1.33;1.10;;;;;;;;;;5029230;28;20513;-84
2022/06/25 05:59:41;;;;;;;1.40;1.10;;;;;;;;;;5028850;28;20517;-84
2022/06/25 06:02:08;;;;;;;3.17;1.30;;;;;;;;;;5027392;28;20486;-84
2022/06/25 06:04:35;;;;;;;1.20;0.93;;;;;;;;;;5029585;28;20473;-84
2022/06/25 06:07:04;;;;;;;1.20;1.10;;;;;;;;;;5020266;28;20825;-84
2022/06/25 06:09:31;;;;;;;1.23;1.00;;;;;;;;;;5029782;28;20470;-84
2022/06/25 06:11:59;;;;;;;1.30;1.20;;;;;;;;;;5030131;28;20569;-84
2022/06/25 06:14:26;;;;;;;1.63;1.27;;;;;;;;;;5031007;28;20454;-84
2022/06/25 06:16:53;;;;;;;1.30;1.03;;;;;;;;;;5032855;28;20467;-84
2022/06/25 06:19:20;;;;;;;1.50;1.00;;;;;;;;;;5033933;28;20438;-84
2022/06/25 06:21:47;;;;;;;1.30;1.00;;;;;;;;;;5031696;28;20466;-83
2022/06/25 06:24:16;;;;;;;1.77;1.27;;;;;;;;;;5031824;28;20523;-84
2022/06/25 06:26:43;;;;;;;1.53;1.10;;;;;;;;;;5034562;28;20442;-83
2022/06/25 06:29:10;;;;;;;1.40;1.00;;;;;;;;;;5033899;28;20450;-84
2022/06/25 06:31:37;;;;;;;1.90;1.27;;;;;;;;;;5022628;28;20866;-84
2022/06/25 06:34:04;;;;;;;1.37;0.90;;;;;;;;;;5033113;28;20933;-85
2022/06/25 06:36:32;;;;;;;2.03;0.90;;;;;;;;;;5031793;28;20466;-86
2022/06/25 06:38:59;;;;;;;1.10;0.87;;;;;;;;;;5033048;28;20533;-86
2022/06/25 06:41:27;;;;;;;2.00;0.90;;;;;;;;;;5031459;28;20928;-86
2022/06/25 06:43:54;;;;;;;2.07;1.07;;;;;;;;;;5030590;28;20461;-86
2022/06/25 06:46:22;;;;;;;1.57;0.90;;;;;;;;;;5028315;28;20466;-85
2022/06/25 06:48:49;;;;;;;1.43;1.10;;;;;;;;;;5032273;28;20466;-85
2022/06/25 06:51:16;;;;;;;1.70;1.10;;;;;;;;;;5025513;28;20466;-85
2022/06/25 06:53:43;;;;;;;1.07;0.90;;;;;;;;;;5030967;28;20977;-87
2022/06/25 06:56:10;;;;;;;1.10;0.97;;;;;;;;;;5031443;28;20910;-89
2022/06/25 06:58:38;;;;;;;1.63;1.20;;;;;;;;;;5033115;28;20461;-87
2022/06/25 07:01:06;;;;;;;1.50;1.10;;;;;;;;;;5029770;28;20872;-86
2022/06/25 07:03:33;;;;;;;1.13;1.00;;;;;;;;;;5031247;28;20465;-87
2022/06/25 07:06:00;;;;;;;1.87;1.40;;;;;;;;;;5029878;28;20465;-87
2022/06/25 07:08:27;;;;;;;1.20;1.00;;;;;;;;;;5031554;28;20462;-87
2022/06/25 07:10:54;;;;;;;1.07;0.90;;;;;;;;;;5032588;28;20548;-87
2022/06/25 07:13:21;;;;;;;1.60;0.93;;;;;;;;;;5032135;28;20576;-88
2022/06/25 07:15:50;;;;;;;1.10;1.00;;;;;;;;;;5022771;28;20462;-87
2022/06/25 07:18:17;;;;;;;2.13;1.13;;;;;;;;;;5025052;28;20458;-87
2022/06/25 07:20:44;;;;;;;1.67;1.00;;;;;;;;;;5025091;28;20470;-87
2022/06/25 07:23:11;;;;;;;2.20;1.00;;;;;;;;;;5026714;28;20459;-87
2022/06/25 07:25:38;;;;;;;1.40;1.07;;;;;;;;;;5022852;28;20468;-88
2022/06/25 07:28:05;;;;;;;1.20;1.00;;;;;;;;;;5026764;28;20458;-90
2022/06/25 07:30:32;;;;;;;1.80;1.20;;;;;;;;;;5023448;28;20473;-84
2022/06/25 07:33:01;;;;;;;1.53;1.00;;;;;;;;;;5024435;28;20927;-87
2022/06/25 07:35:28;;;;;;;1.20;0.90;;;;;;;;;;5026864;28;20443;-87
2022/06/25 07:37:55;;;;;;;3.90;1.23;;;;;;;;;;5023400;28;20485;-85
2022/06/25 07:40:22;;;;;;;1.33;1.00;;;;;;;;;;5022268;28;20869;-85
2022/06/25 07:42:49;;;;;;;1.10;0.90;;;;;;;;;;5023312;28;20446;-88
2022/06/25 07:45:16;;;;;;;1.73;1.10;;;;;;;;;;5020299;28;20537;-87
2022/06/25 07:47:44;;;;;;;1.43;1.10;;;;;;;;;;5017938;28;20827;-87
2022/06/25 07:52:57;;;;;;;1.30;1.10;;;;;;;;;;5030959;28;20567;-86
2022/06/25 07:55:24;;;;;;;1.60;1.50;;;;;;;;;;5016513;28;20450;-88
2022/06/25 07:57:51;;;;;;;1.00;0.80;;;;;;;;;;5022006;28;20454;-89
2022/06/25 08:00:18;;;;;;;1.50;1.40;;;;;;;;;;5029455;28;20469;-82
2022/06/25 08:02:45;;;;;;;1.13;1.00;;;;;;;;;;5021701;28;20482;-88
2022/06/25 08:05:14;;;;;;;1.00;0.90;;;;;;;;;;5024566;28;21261;-90
2022/06/25 08:07:41;;;;;;;1.50;1.00;;;;;;;;;;5024217;28;20445;-90
2022/06/25 08:10:09;;;;;;;1.30;1.00;;;;;;;;;;5021959;28;21051;-89
2022/06/25 08:12:36;;;;;;;1.37;1.10;;;;;;;;;;5024204;28;20470;-89
2022/06/25 08:15:03;;;;;;;1.77;0.90;;;;;;;;;;5020736;28;20462;-89
2022/06/25 08:17:30;;;;;;;1.30;0.90;;;;;;;;;;5028392;28;20970;-90
2022/06/25 08:19:57;;;;;;;1.20;0.90;;;;;;;;;;5020693;28;20473;-92
2022/06/25 08:22:25;;;;;;;1.33;1.10;;;;;;;;;;5022640;28;20454;-91
2022/06/25 08:24:52;;;;;;;1.00;0.90;;;;;;;;;;5026820;28;20972;-91
2022/06/25 08:27:20;;;;;;;1.30;1.20;;;;;;;;;;5023709;28;20541;-89
2022/06/25 08:29:47;;;;;;;1.87;1.30;;;;;;;;;;5022238;28;20529;-91
2022/06/25 08:32:14;;;;;;;1.90;1.20;;;;;;;;;;5020850;28;20477;-89
2022/06/25 08:34:41;;;;;;;1.27;1.00;;;;;;;;;;5023674;28;20965;-88
2022/06/25 08:37:09;;;;;;;1.37;0.90;;;;;;;;;;5023245;28;20802;-91
2022/06/25 08:39:37;;;;;;;1.67;1.10;;;;;;;;;;5023094;28;20498;-91
2022/06/25 08:42:05;;;;;;;3.33;1.10;;;;;;;;;;5023670;28;20446;-91
2022/06/25 08:44:32;;;;;;;1.63;1.13;;;;;;;;;;5024602;28;20965;-90
2022/06/25 08:46:59;;;;;;;1.53;1.30;;;;;;;;;;5027604;28;20557;-90
2022/06/25 08:49:27;;;;;;;1.00;0.80;;;;;;;;;;5024124;28;21213;-91
2022/06/25 08:51:54;;;;;;;1.50;1.13;;;;;;;;;;5020592;28;20897;-91
2022/06/25 08:54:22;;;;;;;2.40;1.23;;;;;;;;;;5022898;28;20538;-89
2022/06/25 08:56:50;;;;;;;1.63;1.10;;;;;;;;;;5021847;28;20462;-91
2022/06/25 08:59:19;;;;;;;4.13;1.50;;;;;;;;;;5021270;28;20513;-91
2022/06/25 09:01:46;;;;;;;1.93;1.30;;;;;;;;;;5023322;28;20579;-89
2022/06/25 09:04:13;;;;;;;1.60;1.00;;;;;;;;;;5022541;28;20865;-86
2022/06/25 09:06:40;;;;;;;1.53;1.10;;;;;;;;;;5025687;28;20501;-86
2022/06/25 09:09:09;;;;;;;1.87;1.20;;;;;;;;;;5024480;28;20462;-91
2022/06/25 09:11:48;;;;;;;1.60;1.30;;;;;;;;;;5020107;28;20865;-88
2022/06/25 09:14:24;;;;;;;1.20;0.90;;;;;;;;;;5023106;28;22146;-91
2022/06/25 09:16:56;;;;;;;1.67;1.53;;;;;;;;;;5021368;28;20953;-89
2022/06/25 09:19:30;;;;;;;1.40;1.10;;;;;;;;;;5021842;28;20566;-89
2022/06/25 09:21:58;;;;;;;1.30;1.00;;;;;;;;;;5018233;28;20548;-89
2022/06/25 09:24:25;;;;;;;1.33;1.10;;;;;;;;;;5025390;28;20930;-90
2022/06/25 09:26:52;;;;;;;2.50;1.50;;;;;;;;;;5018908;28;20478;-85
2022/06/25 09:29:20;;;;;;;2.07;1.00;;;;;;;;;;5022497;28;20837;-89
2022/06/25 09:31:48;;;;;;;1.23;1.13;;;;;;;;;;5020374;28;20897;-86
2022/06/25 09:34:15;;;;;;;1.43;1.13;;;;;;;;;;5021154;28;20486;-87
2022/06/25 09:36:42;;;;;;;2.07;1.50;;;;;;;;;;5016961;28;20465;-90
2022/06/25 09:39:09;;;;;;;1.37;1.17;;;;;;;;;;5023192;28;20473;-85
2022/06/25 09:41:49;;;;;;;1.67;1.20;;;;;;;;;;5018424;28;20466;-88
2022/06/25 09:44:18;;;;;;;1.80;1.20;;;;;;;;;;5018475;28;20493;-88
2022/06/25 09:46:57;;;;;;;3.40;1.80;;;;;;;;;;5019300;28;20837;-89
2022/06/25 09:49:24;;;;;;;2.33;1.40;;;;;;;;;;5025890;28;20461;-86
2022/06/25 09:51:59;;;;;;;1.60;1.50;;;;;;;;;;5021356;28;20861;-89
2022/06/25 09:54:26;;;;;;;2.90;1.13;;;;;;;;;;5020412;28;20908;-91
2022/06/25 09:56:54;;;;;;;2.03;1.13;;;;;;;;;;5027436;28;20497;-87
2022/06/25 09:59:22;;;;;;;2.70;1.40;;;;;;;;;;5027702;28;20938;-90
2022/06/25 10:01:49;;;;;;;1.60;1.50;;;;;;;;;;5024434;28;20679;-89
2022/06/25 10:04:18;;;;;;;2.13;1.40;;;;;;;;;;5023754;28;20469;-88
2022/06/25 10:06:45;;;;;;;1.40;1.10;;;;;;;;;;5024418;28;20448;-88
2022/06/25 10:09:12;;;;;;;1.60;1.30;;;;;;;;;;5025527;28;20458;-87
2022/06/25 10:11:39;;;;;;;2.03;1.33;;;;;;;;;;5028303;28;20465;-90
2022/06/25 10:14:07;;;;;;;1.40;1.30;;;;;;;;;;5012606;28;20478;-89
2022/06/25 10:16:34;;;;;;;1.80;1.40;;;;;;;;;;5023696;28;20455;-89
2022/06/25 10:19:03;;;;;;;2.30;1.13;;;;;;;;;;5026112;28;20458;-87
2022/06/25 10:21:31;;;;;;;2.80;1.40;;;;;;;;;;5019211;28;20889;-89
2022/06/25 10:23:59;;;;;;;2.10;1.20;;;;;;;;;;5022737;28;20939;-88
2022/06/25 10:26:26;;;;;;;1.40;1.00;;;;;;;;;;5025188;28;20471;-87
2022/06/25 10:28:53;;;;;;;1.43;1.00;;;;;;;;;;5024982;28;20474;-88
2022/06/25 10:31:21;;;;;;;1.30;1.07;;;;;;;;;;5025666;28;20450;-89
2022/06/25 10:33:56;;;;;;;2.30;1.33;;;;;;;;;;5026262;28;20496;-88
2022/06/25 10:36:44;;;;;;;3.80;1.47;;;;;;;;;;5025945;28;20458;-89
2022/06/25 10:39:30;;;;;;;1.33;1.20;;;;;;;;;;5025767;28;20812;-87
2022/06/25 10:45:02;;;;;;;1.57;1.30;;;;;;;;;;5027098;28;20428;-87
2022/06/25 10:47:38;;;;;;;1.63;1.10;;;;;;;;;;5019731;28;20937;-86
2022/06/25 10:50:20;;;;;;;4.90;1.30;;;;;;;;;;5020457;28;20488;-85
2022/06/25 10:53:02;;;;;;;3.93;3.00;;;;;;;;;;5020742;28;20960;-85
2022/06/25 10:55:35;;;;;;;1.50;1.30;;;;;;;;;;5016068;28;20454;-87
2022/06/25 10:58:11;;;;;;;1.60;1.10;;;;;;;;;;5022728;28;21038;-86
2022/06/25 11:00:55;;;;;;;2.20;1.40;;;;;;;;;;5023642;28;20977;-86
2022/06/25 11:03:37;;;;;;;2.13;1.30;;;;;;;;;;5025659;28;20481;-89
2022/06/25 11:06:18;;;;;;;2.60;1.30;;;;;;;;;;5022765;28;20454;-87
2022/06/25 11:08:45;;;;;;;1.40;1.10;;;;;;;;;;5023043;28;20969;-90
2022/06/25 11:11:14;;;;;;;1.20;1.10;;;;;;;;;;5030215;28;20813;-90
2022/06/25 11:13:41;;;;;;;1.97;1.83;;;;;;;;;;5029470;28;20469;-88
2022/06/25 11:16:15;;;;;;;1.80;1.10;;;;;;;;;;5025973;28;20466;-87
2022/06/25 11:18:47;;;;;;;2.40;1.43;;;;;;;;;;5029358;28;21286;-87
2022/06/25 11:21:25;;;;;;;2.23;1.70;;;;;;;;;;5023392;28;20502;-86
2022/06/25 11:23:52;;;;;;;4.47;1.40;;;;;;;;;;5027814;28;20546;-86
2022/06/25 11:29:05;;;;;;;2.83;1.43;;;;;;;;;;5029523;28;20580;-86
2022/06/25 11:31:34;;;;;;;1.07;0.90;;;;;;;;;;5021276;28;20463;-85
2022/06/25 11:34:03;;;;;;;2.30;1.20;;;;;;;;;;5027368;28;20617;-88
2022/06/25 11:36:34;;;;;;;1.40;1.10;;;;;;;;;;5016097;28;20546;-88
2022/06/25 11:39:01;;;;;;;1.40;1.20;;;;;;;;;;5027497;28;20525;-86
2022/06/25 11:41:30;;;;;;;2.60;1.20;;;;;;;;;;5023728;28;20457;-86
2022/06/25 11:44:05;;;;;;;1.93;1.13;;;;;;;;;;5030605;28;20461;-86
2022/06/25 11:46:34;;;;;;;2.33;1.50;;;;;;;;;;5025666;28;21034;-87
2022/06/25 11:49:04;;;;;;;3.47;1.10;;;;;;;;;;5030544;28;20809;-87
2022/06/25 11:51:31;;;;;;;2.20;1.43;;;;;;;;;;5025046;28;20841;-87
2022/06/25 11:53:58;;;;;;;1.20;0.80;;;;;;;;;;5031360;28;20475;-88
2022/06/25 11:56:27;;;;;;;2.53;1.23;;;;;;;;;;5031048;28;20524;-87
2022/06/25 11:58:55;;;;;;;2.33;1.30;;;;;;;;;;5029286;28;20509;-88
2022/06/25 12:01:28;;;;;;;1.27;1.00;;;;;;;;;;5029902;28;21090;-91
2022/06/25 12:03:55;;;;;;;2.37;1.10;;;;;;;;;;5026806;28;20493;-87
2022/06/25 12:06:23;;;;;;;1.27;1.00;;;;;;;;;;5029603;28;20457;-87
2022/06/25 12:08:50;;;;;;;2.10;1.17;;;;;;;;;;5022437;28;20466;-88
2022/06/25 12:11:17;;;;;;;1.20;1.10;;;;;;;;;;5028538;28;20506;-87
2022/06/25 12:13:44;;;;;;;1.00;0.80;;;;;;;;;;5025125;28;20481;-89
2022/06/25 12:16:13;;;;;;;1.60;1.10;;;;;;;;;;5019968;28;20469;-88
2022/06/25 12:18:41;;;;;;;1.83;1.10;;;;;;;;;;5026326;28;20469;-88
2022/06/25 12:21:09;;;;;;;1.63;1.10;;;;;;;;;;5016835;28;20451;-87
2022/06/25 12:23:52;;;;;;;2.23;1.00;;;;;;;;;;5024815;28;20477;-82
2022/06/25 12:26:26;;;;;;;4.03;1.10;;;;;;;;;;5030349;28;20965;-88
2022/06/25 12:28:53;;;;;;;5.63;1.50;;;;;;;;;;5028312;28;20485;-85
2022/06/25 12:31:22;;;;;;;6.97;2.03;;;;;;;;;;5028081;28;20458;-87
2022/06/25 12:33:50;;;;;;;2.43;1.10;;;;;;;;;;5026338;28;20481;-85
2022/06/25 12:36:18;;;;;;;9.10;1.93;;;;;;;;;;5029559;28;20504;-87
2022/06/25 12:38:45;;;;;;;6.67;1.40;;;;;;;;;;5025720;28;20508;-88
2022/06/25 12:41:12;;;;;;;1.93;1.40;;;;;;;;;;5029746;28;20826;-86
2022/06/25 12:43:45;;;;;;;1.63;0.90;;;;;;;;;;5028774;28;20505;-87
2022/06/25 12:46:13;;;;;;;3.70;1.30;;;;;;;;;;5031419;28;20469;-86
2022/06/25 12:48:41;;;;;;;2.43;1.20;;;;;;;;;;5027421;28;20818;-87
2022/06/25 12:51:09;;;;;;;1.50;1.23;;;;;;;;;;5026631;28;20457;-85
2022/06/25 12:53:36;;;;;;;1.87;1.37;;;;;;;;;;5025888;28;20484;-85
2022/06/25 12:56:04;;;;;;;1.90;1.40;;;;;;;;;;5030508;28;20478;-91
2022/06/25 12:58:35;;;;;;;5.20;1.20;;;;;;;;;;5030071;28;20469;-86
2022/06/25 13:01:02;;;;;;;1.20;1.10;;;;;;;;;;5026623;28;20526;-88
2022/06/25 13:03:29;;;;;;;1.30;0.90;;;;;;;;;;5028339;28;20462;-85
2022/06/25 13:05:57;;;;;;;1.60;1.10;;;;;;;;;;5027366;28;20621;-85
2022/06/25 13:08:24;;;;;;;1.50;1.10;;;;;;;;;;5023144;28;20451;-86
2022/06/25 13:10:51;;;;;;;2.30;1.50;;;;;;;;;;5030611;28;20469;-86
2022/06/25 13:13:18;;;;;;;1.40;1.30;;;;;;;;;;5031282;28;20466;-85
2022/06/25 13:15:45;;;;;;;2.07;1.20;;;;;;;;;;5028283;28;20822;-85
2022/06/25 13:18:12;;;;;;;1.50;1.00;;;;;;;;;;5027312;28;20489;-85
2022/06/25 13:20:39;;;;;;;1.80;1.30;;;;;;;;;;5029177;28;20451;-86
2022/06/25 13:23:09;;;;;;;6.97;1.27;;;;;;;;;;5022270;28;20940;-85
2022/06/25 13:25:36;;;;;;;1.70;1.10;;;;;;;;;;5030640;28;20466;-85
2022/06/25 13:28:03;;;;;;;2.30;1.40;;;;;;;;;;5024034;28;20550;-88
2022/06/25 13:30:30;;;;;;;3.60;1.37;;;;;;;;;;5026419;28;20451;-79
2022/06/25 13:32:57;;;;;;;2.00;1.10;;;;;;;;;;5029784;28;20495;-78
2022/06/25 13:35:25;;;;;;;1.40;1.07;;;;;;;;;;5028667;28;20482;-80
2022/06/25 13:37:52;;;;;;;7.53;1.50;;;;;;;;;;5026613;28;20458;-78
2022/06/25 13:40:20;;;;;;;4.97;2.33;;;;;;;;;;5027514;28;20462;-79
2022/06/25 13:42:47;;;;;;;2.03;1.40;;;;;;;;;;5028458;28;20956;-78
2022/06/25 13:45:14;;;;;;;3.60;1.50;;;;;;;;;;5027988;28;20512;-78
2022/06/25 13:47:44;;;;;;;3.53;1.77;;;;;;;;;;5029234;28;20520;-86
2022/06/25 13:50:12;;;;;;;2.20;1.60;;;;;;;;;;5028310;28;20466;-87
2022/06/25 13:52:39;;;;;;;3.40;1.30;;;;;;;;;;5030121;28;20462;-78
2022/06/25 13:55:06;;;;;;;2.00;1.37;;;;;;;;;;5027531;28;20478;-80
2022/06/25 13:57:35;;;;;;;2.80;1.30;;;;;;;;;;5029288;28;20454;-78
2022/06/25 14:00:02;;;;;;;4.30;1.23;;;;;;;;;;5028467;28;20461;-79
2022/06/25 14:02:29;;;;;;;4.33;1.47;;;;;;;;;;5026683;28;20786;-79
2022/06/25 14:04:56;;;;;;;2.70;1.67;;;;;;;;;;5027864;28;21092;-78
2022/06/25 14:07:23;;;;;;;4.33;1.30;;;;;;;;;;5027440;28;20512;-79
2022/06/25 14:09:50;;;;;;;3.40;1.50;;;;;;;;;;5029295;28;20465;-79
2022/06/25 14:12:18;;;;;;;3.67;1.40;;;;;;;;;;5031918;28;20453;-84
2022/06/25 14:14:47;;;;;;;3.50;1.63;;;;;;;;;;5036430;28;20864;-84
2022/06/25 14:17:14;;;;;;;1.67;1.17;;;;;;;;;;5032329;28;20458;-84
2022/06/25 14:19:41;;;;;;;3.23;1.50;;;;;;;;;;5030018;28;20481;-80
2022/06/25 14:22:08;;;;;;;2.97;1.47;;;;;;;;;;5026228;28;20438;-81
2022/06/25 14:27:19;;;;;;;2.00;1.30;;;;;;;;;;5029469;28;20932;-82
2022/06/25 14:29:48;;;;;;;4.70;1.57;;;;;;;;;;5026996;28;20470;-80
2022/06/25 14:32:15;;;;;;;11.43;2.10;;;;;;;;;;5026075;28;20899;-82
2022/06/25 14:34:42;;;;;;;1.73;1.53;;;;;;;;;;5026936;28;20477;-81
2022/06/25 14:42:40;;;;;;;2.17;1.10;;;;;;;;;;5031640;28;21059;-84
2022/06/25 14:45:08;;;;;;;2.13;1.27;;;;;;;;;;5027614;28;20456;-83
2022/06/25 14:47:36;;;;;;;3.63;1.60;;;;;;;;;;5032482;28;20486;-80
2022/06/25 14:50:04;;;;;;;2.03;1.40;;;;;;;;;;5032996;28;20985;-85
2022/06/25 14:52:32;;;;;;;2.57;1.40;;;;;;;;;;5032008;28;20501;-82
2022/06/25 14:54:59;;;;;;;2.20;1.30;;;;;;;;;;5032585;28;20497;-84
2022/06/25 14:57:26;;;;;;;1.83;1.30;;;;;;;;;;5033627;28;20458;-84
2022/06/25 14:59:55;;;;;;;2.17;1.03;;;;;;;;;;5029238;28;20462;-83
2022/06/25 15:02:23;;;;;;;1.33;1.23;;;;;;;;;;5027446;28;20494;-81
2022/06/25 15:04:50;;;;;;;3.17;1.70;;;;;;;;;;5028212;28;20462;-84
2022/06/25 15:07:18;;;;;;;2.90;1.50;;;;;;;;;;5031310;28;20446;-81
2022/06/25 15:09:45;;;;;;;3.37;1.57;;;;;;;;;;5022543;28;21000;-79
2022/06/25 15:12:12;;;;;;;1.93;1.53;;;;;;;;;;5029002;28;20462;-82
2022/06/25 15:14:39;;;;;;;1.50;1.30;;;;;;;;;;5032294;28;20478;-80
2022/06/25 15:17:06;;;;;;;5.63;2.23;;;;;;;;;;5027463;28;20462;-81